Maljamar, New Mexico
Current Conditions -  °F | °C
As of 2:50 PM on Friday 24 Oct 2014 (Local Time) from KHOB Reporting Station
Clear Clear  
Wind Chill: 82°   Ceiling: Unl
Heat Index: 82°   Visibility: 10mi
Dew Point: 48°   Wind: 9mph
Humidity: 30%   Direction: 210°SSW
Pressure: 30.16"   Gusts: NA
Location:  32.86°N, 103.77°W
Report Text: KHOB 242050Z 21008KT 10SM SKC 28/09 A3016
Loading
Personal Weather Stations






























Interactive Weather Map
Tropical Storm Tracking
New forecast layout! Learn more

10-Day Weather Forecast

Advertisements
Track Severe Weather on mobile